Flight Track Log - Related Links

Times and Time Zones

All times are in EDT time to prevent confusion due to time zone crossing. See the N1173A flight status page for this flight to view local times or setup timezone preferences in your user account.

Time Position Orientation Groundspeed Altitude Reporting Facility
EDT Latitude Longitude Course Direction KTS MPH feet Rate Location/Type
Sat 07:31:11 PM 39.7856 -89.6869 211° Southwest 90 104 3,000  Level Kansas City Center
Sat 07:32:13 PM 39.7647 -89.7069 216° Southwest 93 107 3,600 439 Climbing Kansas City Center
Sat 07:33:14 PM 39.7375 -89.7281 211° Southwest 109 125 3,900 244 Climbing Kansas City Center
Sat 07:34:16 PM 39.7047 -89.7594 216° Southwest 127 146 4,100 49 Climbing Kansas City Center
Sat 07:35:00 PM 39.6301 -89.8192 211° Southwest  Level FlightAware Approximate
Sat 07:35:17 PM 39.6703 -89.7861 211° Southwest 141 162 4,000  Level Kansas City Center
Sat 07:36:00 PM 39.5964 -89.8451 211° Southwest  Level FlightAware Approximate
Sat 07:36:18 PM 39.6369 -89.8147 213° Southwest 143 165 4,000  Level Kansas City Center
Sat 07:37:20 PM 39.6025 -89.8403 210° Southwest 144 166 4,000 49 Level Kansas City Center
Sat 07:38:21 PM 39.5681 -89.8653 209° Southwest 143 165 4,100  Climbing Kansas City Center
Sat 07:39:23 PM 39.5333 -89.8908 210° Southwest 144 166 4,000 -49 Descending Kansas City Center
Sat 07:40:24 PM 39.4989 -89.9169 210° Southwest 144 166 4,000  Level Kansas City Center
Sat 07:41:26 PM 39.4647 -89.9433 211° Southwest 143 165 4,000 49 Level Kansas City Center
Sat 07:42:27 PM 39.4250 -89.9764 213° Southwest 142 163 4,100  Climbing Kansas City Center
Sat 07:43:29 PM 39.3911 -90.0033 212° Southwest 143 165 4,000 -49 Descending Kansas City Center
Sat 07:44:30 PM 39.3575 -90.0292 211° Southwest 140 161 4,000  Level Kansas City Center
Sat 07:45:32 PM 39.3311 -90.0686 229° Southwest 142 163 4,000  Level Kansas City Center
Sat 07:46:33 PM 39.3064 -90.1100 232° Southwest 145 167 4,000  Level Kansas City Center
Sat 07:47:35 PM 39.2800 -90.1494 229° Southwest 146 168 4,000  Level Kansas City Center
Sat 07:48:36 PM 39.2536 -90.1869 228° Southwest 144 166 4,000 49 Level Kansas City Center
Sat 07:49:38 PM 39.2208 -90.2347 228° Southwest 145 167 4,100  Climbing Kansas City Center
Sat 07:50:39 PM 39.1947 -90.2742 230° Southwest 146 168 4,000 -49 Descending Kansas City Center
Sat 07:51:41 PM 39.1683 -90.3125 228° Southwest 145 167 4,000  Level Kansas City Center
Sat 07:52:42 PM 39.1433 -90.3506 230° Southwest 143 165 4,000  Level Kansas City Center
Sat 07:53:43 PM 39.1175 -90.3911 231° Southwest 144 166 4,000  Level Kansas City Center
Sat 07:54:45 PM 39.0978 -90.4361 241° Southwest 144 166 4,000  Level Kansas City Center
Sat 07:55:46 PM 39.0786 -90.4811 241° Southwest 144 166 4,000  Level Kansas City Center
Sat 07:56:48 PM 39.0589 -90.5250 240° Southwest 144 166 4,000  Level Kansas City Center
Sat 07:57:49 PM 39.0369 -90.5783 242° Southwest 142 163 4,000  Level Kansas City Center
Sat 07:58:50 PM 39.0167 -90.6219 239° Southwest 142 163 4,000  Level Kansas City Center
Sat 07:59:52 PM 38.9961 -90.6675 240° Southwest 145 167 4,000  Level Kansas City Center
Sat 08:00:53 PM 38.9756 -90.7131 240° Southwest 146 168 4,000  Level Kansas City Center
Sat 08:01:55 PM 38.9544 -90.7578 239° Southwest 147 169 4,000  Level Kansas City Center
Sat 08:02:56 PM 38.9342 -90.8022 240° Southwest 147 169 4,000  Level Kansas City Center
Sat 08:03:58 PM 38.9019 -90.8319 216° Southwest 145 167 4,000  Level Kansas City Center
Sat 08:04:59 PM 38.8689 -90.8589 212° Southwest 144 166 4,000  Level Kansas City Center
Sat 08:06:00 PM 38.8339 -90.8878 213° Southwest 135 155 4,000  Level Kansas City Center
Sat 08:07:02 PM 38.8103 -90.9086 215° Southwest 118 136 4,000  Level Kansas City Center
Sat 08:08:03 PM 38.7839 -90.9306 213° Southwest 113 130 4,000  Level Kansas City Center
Sat 08:09:04 PM 38.7575 -90.9536 214° Southwest 114 131 4,000  Level Kansas City Center
Sat 08:10:06 PM 38.7272 -90.9558 183° South 123 142 4,000  Level Kansas City Center
Sat 08:11:07 PM 38.6953 -90.9517 174° South 116 133 4,000  Level Kansas City Center
Sat 08:12:08 PM 38.6647 -90.9456 171° South 115 132 4,000  Level Kansas City Center
Sat 08:13:10 PM 38.6344 -90.9397 171° South 113 130 4,000  Level Kansas City Center
Sat 08:14:11 PM 38.6100 -90.9036 131° Southeast 117 135 4,000  Level Kansas City Center
Sat 08:15:12 PM 38.5925 -90.8675 122° Southeast 119 137 4,000  Level Kansas City Center
Sat 08:16:13 PM 38.5758 -90.8333 122° Southeast 117 135 4,000  Level Kansas City Center
Sat 08:17:15 PM 38.5581 -90.7997 124° Southeast 116 133 4,000  Level Kansas City Center
Sat 08:18:16 PM 38.5403 -90.7653 123° Southeast 116 133 4,000  Level Kansas City Center
Sat 08:19:17 PM 38.5217 -90.7286 123° Southeast 120 138 4,000  Level Kansas City Center
Sat 08:20:19 PM 38.5047 -90.6933 122° Southeast 119 137 4,000  Level Kansas City Center
Sat 08:21:20 PM 38.4881 -90.6572 121° Southeast 119 137 4,000  Level Kansas City Center
Sat 08:22:21 PM 38.4753 -90.6092 109° East 129 148 4,000  Level Kansas City Center
Sat 08:23:22 PM 38.4803 -90.5628 82° East 132 152 4,000  Level Kansas City Center
Sat 08:24:23 PM 38.4844 -90.5172 83° East 131 151 4,000  Level Kansas City Center
Sat 08:25:25 PM 38.4875 -90.4714 85° East 131 151 4,000  Level Kansas City Center
Sat 08:26:26 PM 38.4919 -90.4244 83° East 132 152 4,000  Level Kansas City Center
Sat 08:27:27 PM 38.5139 -90.4300 349° North 133 153 4,000  Level Kansas City Center
Sat 08:28:28 PM 38.5342 -90.4667 305° West 128 147 4,000  Level Kansas City Center
Sat 08:29:30 PM 38.5542 -90.5019 306° West 125 144 4,000  Level Kansas City Center
Sat 08:30:31 PM 38.5731 -90.5361 305° West 121 139 4,000  Level Kansas City Center
Sat 08:31:32 PM 38.5917 -90.5708 304° West 118 136 4,000  Level Kansas City Center
Sat 08:32:33 PM 38.6089 -90.6075 301° West 119 137 4,000  Level Kansas City Center
Sat 08:33:34 PM 38.5775 -90.6239 202° Southwest 129 148 4,000  Level Kansas City Center
Sat 08:34:36 PM 38.5436 -90.6250 181° South 126 145 4,000  Level Kansas City Center
Sat 08:35:37 PM 38.5100 -90.6275 183° South 123 142 4,000  Level Kansas City Center
Sat 08:36:38 PM 38.4764 -90.6289 182° South 122 140 4,000  Level Kansas City Center
Sat 08:37:39 PM 38.4431 -90.6314 183° South 121 139 4,000  Level Kansas City Center
Sat 08:38:40 PM 38.4094 -90.6331 182° South 121 139 4,000  Level Kansas City Center
Sat 08:39:41 PM 38.3711 -90.6364 184° South 127 146 4,000  Level Kansas City Center
Sat 08:40:42 PM 38.3297 -90.6389 183° South 138 159 4,000  Level Kansas City Center
Sat 08:41:44 PM 38.2867 -90.6253 166° South 157 181 4,000  Level Kansas City Center
Sat 08:42:45 PM 38.2375 -90.6139 170° South 153 176 4,000  Level Kansas City Center
Sat 08:43:46 PM 38.1975 -90.6031 168° South 151 174 4,000  Level Kansas City Center
Sat 08:44:47 PM 38.1583 -90.5922 168° South 147 169 4,000  Level Kansas City Center
Sat 08:45:48 PM 38.1178 -90.5817 168° South 147 169 4,000  Level Kansas City Center
Sat 08:46:49 PM 38.0792 -90.5650 161° South 147 169 4,000  Level Kansas City Center
Sat 08:47:50 PM 38.0414 -90.5464 159° South 146 168 4,000  Level Kansas City Center
Sat 08:48:52 PM 38.0028 -90.5267 158° South 147 169 4,000  Level Kansas City Center

Login

Don't have an account? Register now (free) for customized features, flight alerts, and more!